Union Grove, Louisiana
Current Conditions -  °F | °C
As of 9:15 AM on Wednesday 22 Oct 2014 (Local Time) from KIER Reporting Station
Clear Clear  
Wind Chill: 64°   Ceiling: Unl
Heat Index: 64°   Visibility: 10mi
Dew Point: 59°   Wind: 3mph
Humidity: 85%   Direction: 70°ENE
Pressure: 30.14"   Gusts: NA
Location:  31.6668°N, 92.8023°W
Report Text: KIER 221415Z AUTO 07003KT 10SM CLR 18/15 A3014 RMK AO2 T01750150
Loading
Personal Weather Stations






























Interactive Weather Map
Tropical Storm Tracking
New forecast layout! Learn more

10-Day Weather Forecast

Advertisements
Track Severe Weather on mobile